sensor_id;sensor_type;location;lat;lon;timestamp;pressure;altitude;pressure_sealevel;temperature;humidity
72525;BME280;60547;48.502;8.996;2023-02-27T00:00:26;98174.72;;;-2.40;68.71
72525;BME280;60547;48.502;8.996;2023-02-27T00:02:51;98223.44;;;-1.98;68.10
72525;BME280;60547;48.502;8.996;2023-02-27T00:05:18;98197.28;;;-2.27;68.39
72525;BME280;60547;48.502;8.996;2023-02-27T00:07:44;98207.91;;;-2.10;68.50
72525;BME280;60547;48.502;8.996;2023-02-27T00:10:11;98195.09;;;-2.21;68.89
72525;BME280;60547;48.502;8.996;2023-02-27T00:12:37;98210.25;;;-2.36;68.82
72525;BME280;60547;48.502;8.996;2023-02-27T00:15:08;98216.94;;;-2.34;69.41
72525;BME280;60547;48.502;8.996;2023-02-27T00:17:34;98202.88;;;-2.48;69.64
72525;BME280;60547;48.502;8.996;2023-02-27T00:19:59;98212.38;;;-2.30;69.16
72525;BME280;60547;48.502;8.996;2023-02-27T00:22:25;98207.75;;;-2.41;70.24
72525;BME280;60547;48.502;8.996;2023-02-27T00:24:51;98196.50;;;-2.40;69.53
72525;BME280;60547;48.502;8.996;2023-02-27T00:27:17;98197.41;;;-2.36;69.77
72525;BME280;60547;48.502;8.996;2023-02-27T00:29:42;98197.75;;;-2.37;69.76
72525;BME280;60547;48.502;8.996;2023-02-27T00:32:08;98193.91;;;-2.48;70.14
72525;BME280;60547;48.502;8.996;2023-02-27T00:34:33;98210.38;;;-2.45;69.82
72525;BME280;60547;48.502;8.996;2023-02-27T00:36:59;98204.25;;;-2.54;70.63
72525;BME280;60547;48.502;8.996;2023-02-27T00:39:24;98202.66;;;-2.43;70.21
72525;BME280;60547;48.502;8.996;2023-02-27T00:41:50;98206.31;;;-2.51;70.16
72525;BME280;60547;48.502;8.996;2023-02-27T00:44:15;98207.88;;;-2.38;70.13
72525;BME280;60547;48.502;8.996;2023-02-27T00:46:41;98207.19;;;-2.47;69.82
72525;BME280;60547;48.502;8.996;2023-02-27T00:49:06;98206.84;;;-2.33;70.21
72525;BME280;60547;48.502;8.996;2023-02-27T00:51:32;98198.31;;;-2.32;69.30
72525;BME280;60547;48.502;8.996;2023-02-27T00:53:57;98185.25;;;-2.26;69.46
72525;BME280;60547;48.502;8.996;2023-02-27T00:56:23;98187.09;;;-2.02;69.38
72525;BME280;60547;48.502;8.996;2023-02-27T00:58:48;98210.97;;;-2.11;69.25
72525;BME280;60547;48.502;8.996;2023-02-27T01:01:14;98208.16;;;-2.15;69.20
72525;BME280;60547;48.502;8.996;2023-02-27T01:03:40;98212.31;;;-2.05;68.94
72525;BME280;60547;48.502;8.996;2023-02-27T01:06:05;98211.91;;;-2.19;69.17
72525;BME280;60547;48.502;8.996;2023-02-27T01:08:32;98212.19;;;-2.37;69.42
72525;BME280;60547;48.502;8.996;2023-02-27T01:10:58;98209.66;;;-2.30;69.82
72525;BME280;60547;48.502;8.996;2023-02-27T01:13:23;98204.41;;;-2.22;69.01
72525;BME280;60547;48.502;8.996;2023-02-27T01:15:49;98201.28;;;-2.37;69.47
72525;BME280;60547;48.502;8.996;2023-02-27T01:18:15;98194.44;;;-2.31;69.56
72525;BME280;60547;48.502;8.996;2023-02-27T01:20:40;98199.94;;;-2.43;70.25
72525;BME280;60547;48.502;8.996;2023-02-27T01:23:06;98205.38;;;-2.43;70.26
72525;BME280;60547;48.502;8.996;2023-02-27T01:25:31;98195.06;;;-2.49;70.01
72525;BME280;60547;48.502;8.996;2023-02-27T01:27:57;98194.72;;;-2.48;70.40
72525;BME280;60547;48.502;8.996;2023-02-27T01:30:22;98197.88;;;-2.46;70.53
72525;BME280;60547;48.502;8.996;2023-02-27T01:32:48;98189.84;;;-2.54;70.31
72525;BME280;60547;48.502;8.996;2023-02-27T01:35:13;98195.41;;;-2.51;69.97
72525;BME280;60547;48.502;8.996;2023-02-27T01:37:39;98196.88;;;-2.53;70.45
72525;BME280;60547;48.502;8.996;2023-02-27T01:40:05;98201.84;;;-2.43;70.69
72525;BME280;60547;48.502;8.996;2023-02-27T01:42:31;98198.34;;;-2.44;69.54
72525;BME280;60547;48.502;8.996;2023-02-27T01:47:46;98189.53;;;-2.65;70.83
72525;BME280;60547;48.502;8.996;2023-02-27T01:50:13;98207.91;;;-2.74;70.67
72525;BME280;60547;48.502;8.996;2023-02-27T01:52:39;98210.19;;;-2.64;70.54
72525;BME280;60547;48.502;8.996;2023-02-27T01:55:06;98223.22;;;-2.57;71.07
72525;BME280;60547;48.502;8.996;2023-02-27T01:57:36;98210.63;;;-2.62;70.83
72525;BME280;60547;48.502;8.996;2023-02-27T02:00:03;98211.53;;;-2.58;70.79
72525;BME280;60547;48.502;8.996;2023-02-27T02:02:35;98206.78;;;-2.61;70.83
72525;BME280;60547;48.502;8.996;2023-02-27T02:05:02;98212.22;;;-2.61;70.56
72525;BME280;60547;48.502;8.996;2023-02-27T02:07:28;98206.22;;;-2.67;71.64
72525;BME280;60547;48.502;8.996;2023-02-27T02:09:56;98208.59;;;-2.65;70.70
72525;BME280;60547;48.502;8.996;2023-02-27T02:12:26;98210.19;;;-2.76;72.16
72525;BME280;60547;48.502;8.996;2023-02-27T02:14:52;98212.22;;;-2.61;71.21
72525;BME280;60547;48.502;8.996;2023-02-27T02:36:40;98208.94;;;-2.79;72.30
72525;BME280;60547;48.502;8.996;2023-02-27T02:42:24;98198.38;;;-2.80;73.07
72525;BME280;60547;48.502;8.996;2023-02-27T02:50:13;98195.78;;;-2.89;72.66
72525;BME280;60547;48.502;8.996;2023-02-27T02:52:55;98192.25;;;-2.77;72.92
72525;BME280;60547;48.502;8.996;2023-02-27T02:55:36;98213.59;;;-2.67;73.45
72525;BME280;60547;48.502;8.996;2023-02-27T03:01:17;98210.75;;;-2.71;73.06
72525;BME280;60547;48.502;8.996;2023-02-27T03:03:57;98219.94;;;-2.63;72.91
72525;BME280;60547;48.502;8.996;2023-02-27T03:06:36;98213.00;;;-2.48;72.55
72525;BME280;60547;48.502;8.996;2023-02-27T03:09:33;98211.06;;;-2.48;72.09
72525;BME280;60547;48.502;8.996;2023-02-27T03:12:02;98210.38;;;-2.57;71.83
72525;BME280;60547;48.502;8.996;2023-02-27T03:17:18;98213.00;;;-2.61;73.18
72525;BME280;60547;48.502;8.996;2023-02-27T03:20:01;98203.13;;;-2.53;73.05
72525;BME280;60547;48.502;8.996;2023-02-27T03:22:31;98205.16;;;-2.50;72.43
72525;BME280;60547;48.502;8.996;2023-02-27T03:25:00;98198.81;;;-2.66;72.95
72525;BME280;60547;48.502;8.996;2023-02-27T03:27:32;98216.06;;;-2.62;72.87
72525;BME280;60547;48.502;8.996;2023-02-27T03:30:10;98207.91;;;-2.74;72.73
72525;BME280;60547;48.502;8.996;2023-02-27T03:32:41;98204.97;;;-2.94;73.23
72525;BME280;60547;48.502;8.996;2023-02-27T03:35:10;98216.09;;;-2.86;73.38
72525;BME280;60547;48.502;8.996;2023-02-27T03:40:42;98209.06;;;-2.87;73.72
72525;BME280;60547;48.502;8.996;2023-02-27T03:45:55;98218.47;;;-2.97;74.65
72525;BME280;60547;48.502;8.996;2023-02-27T03:48:26;98211.31;;;-2.89;74.36
72525;BME280;60547;48.502;8.996;2023-02-27T03:50:52;98214.84;;;-2.77;74.34
72525;BME280;60547;48.502;8.996;2023-02-27T03:53:46;98227.44;;;-2.97;74.88
72525;BME280;60547;48.502;8.996;2023-02-27T03:56:10;98227.44;;;-2.72;74.38
72525;BME280;60547;48.502;8.996;2023-02-27T03:58:37;98233.53;;;-2.63;74.04
72525;BME280;60547;48.502;8.996;2023-02-27T04:01:03;98229.47;;;-2.57;73.51
72525;BME280;60547;48.502;8.996;2023-02-27T04:03:33;98229.69;;;-2.50;72.67
72525;BME280;60547;48.502;8.996;2023-02-27T04:06:01;98238.41;;;-2.56;73.43
72525;BME280;60547;48.502;8.996;2023-02-27T04:09:01;98235.81;;;-2.53;74.05
72525;BME280;60547;48.502;8.996;2023-02-27T04:11:40;98237.50;;;-2.48;73.28
72525;BME280;60547;48.502;8.996;2023-02-27T04:20:00;98234.91;;;-2.69;74.11
72525;BME280;60547;48.502;8.996;2023-02-27T04:22:38;98253.06;;;-2.85;74.07
72525;BME280;60547;48.502;8.996;2023-02-27T04:25:23;98246.72;;;-2.65;74.18
72525;BME280;60547;48.502;8.996;2023-02-27T04:28:00;98244.22;;;-2.58;73.83
72525;BME280;60547;48.502;8.996;2023-02-27T04:33:28;98252.84;;;-2.56;73.25
72525;BME280;60547;48.502;8.996;2023-02-27T04:36:05;98239.91;;;-2.59;73.61
72525;BME280;60547;48.502;8.996;2023-02-27T04:38:47;98236.16;;;-2.67;73.68
72525;BME280;60547;48.502;8.996;2023-02-27T04:43:44;98231.84;;;-2.68;73.25
72525;BME280;60547;48.502;8.996;2023-02-27T04:46:13;98241.25;;;-2.77;73.66
72525;BME280;60547;48.502;8.996;2023-02-27T04:51:17;98245.22;;;-2.63;74.38
72525;BME280;60547;48.502;8.996;2023-02-27T04:53:53;98240.56;;;-2.50;73.08
72525;BME280;60547;48.502;8.996;2023-02-27T04:56:24;98248.06;;;-2.47;73.14
72525;BME280;60547;48.502;8.996;2023-02-27T04:58:52;98245.00;;;-2.57;73.86
72525;BME280;60547;48.502;8.996;2023-02-27T05:01:23;98238.31;;;-2.60;73.40
72525;BME280;60547;48.502;8.996;2023-02-27T05:03:52;98244.00;;;-2.65;74.18
72525;BME280;60547;48.502;8.996;2023-02-27T05:06:22;98246.81;;;-2.74;74.20
72525;BME280;60547;48.502;8.996;2023-02-27T05:11:23;98256.25;;;-2.83;74.99
72525;BME280;60547;48.502;8.996;2023-02-27T05:14:02;98257.13;;;-2.91;75.26
72525;BME280;60547;48.502;8.996;2023-02-27T05:16:40;98256.91;;;-2.86;74.26
72525;BME280;60547;48.502;8.996;2023-02-27T05:19:08;98250.66;;;-3.11;75.68
72525;BME280;60547;48.502;8.996;2023-02-27T05:24:40;98247.41;;;-2.80;74.47
72525;BME280;60547;48.502;8.996;2023-02-27T05:29:59;98264.19;;;-2.90;75.85
72525;BME280;60547;48.502;8.996;2023-02-27T05:35:10;98263.06;;;-2.77;74.48
72525;BME280;60547;48.502;8.996;2023-02-27T05:40:33;98269.06;;;-2.72;74.99
72525;BME280;60547;48.502;8.996;2023-02-27T05:43:25;98270.63;;;-2.95;75.32
72525;BME280;60547;48.502;8.996;2023-02-27T05:45:56;98267.00;;;-2.99;75.57
72525;BME280;60547;48.502;8.996;2023-02-27T05:48:27;98269.06;;;-2.84;75.16
72525;BME280;60547;48.502;8.996;2023-02-27T05:50:55;98266.91;;;-2.90;75.46
72525;BME280;60547;48.502;8.996;2023-02-27T05:53:23;98258.28;;;-2.92;75.31
72525;BME280;60547;48.502;8.996;2023-02-27T05:55:53;98257.03;;;-2.83;74.97
72525;BME280;60547;48.502;8.996;2023-02-27T06:01:00;98268.59;;;-2.74;74.66
72525;BME280;60547;48.502;8.996;2023-02-27T06:03:28;98257.94;;;-2.79;74.68
72525;BME280;60547;48.502;8.996;2023-02-27T06:05:58;98264.41;;;-2.83;75.00
72525;BME280;60547;48.502;8.996;2023-02-27T06:08:24;98275.53;;;-2.88;74.79
72525;BME280;60547;48.502;8.996;2023-02-27T06:10:49;98277.56;;;-2.85;75.45
72525;BME280;60547;48.502;8.996;2023-02-27T06:13:15;98271.44;;;-2.95;74.72
72525;BME280;60547;48.502;8.996;2023-02-27T06:15:44;98263.38;;;-2.91;75.10
72525;BME280;60547;48.502;8.996;2023-02-27T06:18:11;98267.13;;;-2.96;74.91
72525;BME280;60547;48.502;8.996;2023-02-27T06:20:37;98281.63;;;-2.91;75.30
72525;BME280;60547;48.502;8.996;2023-02-27T06:23:03;98255.31;;;-3.00;75.41
72525;BME280;60547;48.502;8.996;2023-02-27T06:25:29;98280.28;;;-2.85;75.00
72525;BME280;60547;48.502;8.996;2023-02-27T06:27:55;98282.56;;;-2.87;74.47
72525;BME280;60547;48.502;8.996;2023-02-27T06:30:20;98283.25;;;-2.78;75.44
72525;BME280;60547;48.502;8.996;2023-02-27T06:32:46;98287.09;;;-2.79;74.49
72525;BME280;60547;48.502;8.996;2023-02-27T06:35:11;98296.59;;;-2.98;75.27
72525;BME280;60547;48.502;8.996;2023-02-27T06:37:37;98289.69;;;-2.83;74.76
72525;BME280;60547;48.502;8.996;2023-02-27T06:40:03;98294.13;;;-2.78;74.85
72525;BME280;60547;48.502;8.996;2023-02-27T06:42:31;98261.22;;;-2.85;74.94
72525;BME280;60547;48.502;8.996;2023-02-27T06:44:56;98280.06;;;-2.80;74.46
72525;BME280;60547;48.502;8.996;2023-02-27T06:47:22;98299.25;;;-2.65;74.20
72525;BME280;60547;48.502;8.996;2023-02-27T06:49:47;98295.44;;;-3.09;75.19
72525;BME280;60547;48.502;8.996;2023-02-27T06:52:13;98296.13;;;-3.12;75.23
72525;BME280;60547;48.502;8.996;2023-02-27T06:54:39;98303.41;;;-2.91;74.85
72525;BME280;60547;48.502;8.996;2023-02-27T06:57:04;98298.44;;;-2.77;73.85
72525;BME280;60547;48.502;8.996;2023-02-27T06:59:30;98305.47;;;-2.64;74.05
72525;BME280;60547;48.502;8.996;2023-02-27T07:01:56;98322.28;;;-2.62;74.35
72525;BME280;60547;48.502;8.996;2023-02-27T07:04:23;98299.69;;;-2.75;73.92
72525;BME280;60547;48.502;8.996;2023-02-27T07:06:49;98305.94;;;-2.62;73.83
72525;BME280;60547;48.502;8.996;2023-02-27T07:09:15;98319.34;;;-2.45;73.38
72525;BME280;60547;48.502;8.996;2023-02-27T07:11:40;98307.31;;;-2.68;73.73
72525;BME280;60547;48.502;8.996;2023-02-27T07:14:06;98322.41;;;-2.46;73.83
72525;BME280;60547;48.502;8.996;2023-02-27T07:16:31;98323.88;;;-2.49;74.04
72525;BME280;60547;48.502;8.996;2023-02-27T07:18:57;98325.69;;;-2.41;73.46
72525;BME280;60547;48.502;8.996;2023-02-27T07:21:23;98326.16;;;-2.39;73.39
72525;BME280;60547;48.502;8.996;2023-02-27T07:23:48;98327.06;;;-2.22;73.28
72525;BME280;60547;48.502;8.996;2023-02-27T07:26:14;98335.78;;;-2.17;72.37
72525;BME280;60547;48.502;8.996;2023-02-27T07:28:39;98329.88;;;-2.07;72.67
72525;BME280;60547;48.502;8.996;2023-02-27T07:31:05;98323.53;;;-2.11;71.86
72525;BME280;60547;48.502;8.996;2023-02-27T07:33:30;98313.53;;;-2.31;72.20
72525;BME280;60547;48.502;8.996;2023-02-27T07:35:58;98333.63;;;-2.23;72.51
72525;BME280;60547;48.502;8.996;2023-02-27T07:38:24;98320.00;;;-2.23;72.05
72525;BME280;60547;48.502;8.996;2023-02-27T07:40:52;98347.50;;;-2.16;72.36
72525;BME280;60547;48.502;8.996;2023-02-27T07:43:17;98341.91;;;-2.08;71.94
72525;BME280;60547;48.502;8.996;2023-02-27T07:45:43;98349.88;;;-2.15;71.74
72525;BME280;60547;48.502;8.996;2023-02-27T07:48:09;98342.25;;;-2.09;72.19
72525;BME280;60547;48.502;8.996;2023-02-27T07:50:35;98341.34;;;-2.01;71.10
72525;BME280;60547;48.502;8.996;2023-02-27T07:53:01;98344.63;;;-2.08;72.30
72525;BME280;60547;48.502;8.996;2023-02-27T07:55:27;98333.06;;;-2.05;71.01
72525;BME280;60547;48.502;8.996;2023-02-27T07:57:52;98333.84;;;-2.04;71.13
72525;BME280;60547;48.502;8.996;2023-02-27T08:00:18;98330.31;;;-1.92;71.49
72525;BME280;60547;48.502;8.996;2023-02-27T08:02:45;98331.78;;;-1.95;70.17
72525;BME280;60547;48.502;8.996;2023-02-27T08:05:10;98323.38;;;-1.90;70.48
72525;BME280;60547;48.502;8.996;2023-02-27T08:07:36;98324.81;;;-1.80;70.51
72525;BME280;60547;48.502;8.996;2023-02-27T08:10:05;98326.97;;;-1.74;69.93
72525;BME280;60547;48.502;8.996;2023-02-27T08:12:31;98334.00;;;-1.73;69.86
72525;BME280;60547;48.502;8.996;2023-02-27T08:14:56;98326.50;;;-1.64;69.79
72525;BME280;60547;48.502;8.996;2023-02-27T08:17:21;98325.34;;;-1.63;69.55
72525;BME280;60547;48.502;8.996;2023-02-27T08:19:47;98326.59;;;-1.32;68.55
72525;BME280;60547;48.502;8.996;2023-02-27T08:22:13;98332.91;;;-1.16;68.40
72525;BME280;60547;48.502;8.996;2023-02-27T08:24:38;98326.69;;;-0.85;67.58
72525;BME280;60547;48.502;8.996;2023-02-27T08:27:05;98342.22;;;-0.73;66.80
72525;BME280;60547;48.502;8.996;2023-02-27T08:29:31;98328.22;;;-0.72;65.77
72525;BME280;60547;48.502;8.996;2023-02-27T08:31:58;98336.66;;;-0.77;66.17
72525;BME280;60547;48.502;8.996;2023-02-27T08:34:23;98334.22;;;-0.50;65.31
72525;BME280;60547;48.502;8.996;2023-02-27T08:36:50;98345.94;;;-0.50;64.92
72525;BME280;60547;48.502;8.996;2023-02-27T08:39:16;98341.25;;;-0.49;65.23
72525;BME280;60547;48.502;8.996;2023-02-27T08:41:42;98315.44;;;-0.68;65.22
72525;BME280;60547;48.502;8.996;2023-02-27T08:44:10;98338.00;;;-0.55;65.22
72525;BME280;60547;48.502;8.996;2023-02-27T08:46:36;98342.84;;;-0.48;65.54
72525;BME280;60547;48.502;8.996;2023-02-27T08:49:02;98349.56;;;-0.46;64.41
72525;BME280;60547;48.502;8.996;2023-02-27T08:51:27;98359.16;;;-0.52;63.80
72525;BME280;60547;48.502;8.996;2023-02-27T08:53:53;98353.59;;;-0.24;64.37
72525;BME280;60547;48.502;8.996;2023-02-27T08:56:24;98342.13;;;-0.14;63.78
72525;BME280;60547;48.502;8.996;2023-02-27T08:58:50;98347.50;;;-0.17;63.43
72525;BME280;60547;48.502;8.996;2023-02-27T09:01:16;98349.94;;;0.04;62.54
72525;BME280;60547;48.502;8.996;2023-02-27T09:03:42;98348.00;;;0.04;62.21
72525;BME280;60547;48.502;8.996;2023-02-27T09:06:07;98361.41;;;0.09;61.92
72525;BME280;60547;48.502;8.996;2023-02-27T09:08:33;98354.28;;;0.40;62.17
72525;BME280;60547;48.502;8.996;2023-02-27T09:10:58;98351.63;;;0.43;60.88
72525;BME280;60547;48.502;8.996;2023-02-27T09:13:24;98339.03;;;0.58;61.30
72525;BME280;60547;48.502;8.996;2023-02-27T09:15:51;98355.75;;;0.72;60.28
72525;BME280;60547;48.502;8.996;2023-02-27T09:18:17;98352.72;;;0.77;60.49
72525;BME280;60547;48.502;8.996;2023-02-27T09:20:43;98355.59;;;0.65;59.28
72525;BME280;60547;48.502;8.996;2023-02-27T09:23:09;98351.75;;;0.50;59.45
72525;BME280;60547;48.502;8.996;2023-02-27T09:25:34;98348.16;;;0.85;59.50
72525;BME280;60547;48.502;8.996;2023-02-27T09:28:00;98357.19;;;0.66;59.32
72525;BME280;60547;48.502;8.996;2023-02-27T09:30:27;98347.38;;;0.65;58.33
72525;BME280;60547;48.502;8.996;2023-02-27T09:32:52;98354.16;;;0.90;58.47
72525;BME280;60547;48.502;8.996;2023-02-27T09:35:18;98355.72;;;1.11;57.60
72525;BME280;60547;48.502;8.996;2023-02-27T09:37:46;98338.44;;;0.87;57.49
72525;BME280;60547;48.502;8.996;2023-02-27T09:40:37;98346.16;;;1.24;57.24
72525;BME280;60547;48.502;8.996;2023-02-27T09:43:12;98353.63;;;1.46;57.11
72525;BME280;60547;48.502;8.996;2023-02-27T09:45:40;98353.13;;;1.41;56.37
72525;BME280;60547;48.502;8.996;2023-02-27T09:48:23;98353.44;;;1.58;57.16
72525;BME280;60547;48.502;8.996;2023-02-27T09:50:50;98356.38;;;1.69;54.69
72525;BME280;60547;48.502;8.996;2023-02-27T09:53:25;98347.28;;;1.65;54.21
72525;BME280;60547;48.502;8.996;2023-02-27T09:55:58;98346.06;;;1.63;55.58
72525;BME280;60547;48.502;8.996;2023-02-27T09:58:36;98346.22;;;1.96;53.89
72525;BME280;60547;48.502;8.996;2023-02-27T10:03:53;98345.31;;;2.15;52.77
72525;BME280;60547;48.502;8.996;2023-02-27T10:06:54;98361.03;;;1.91;52.65
72525;BME280;60547;48.502;8.996;2023-02-27T10:10:29;98370.56;;;1.75;53.90
72525;BME280;60547;48.502;8.996;2023-02-27T10:15:22;98350.53;;;1.97;52.34
72525;BME280;60547;48.502;8.996;2023-02-27T10:17:59;98355.06;;;1.86;51.15
72525;BME280;60547;48.502;8.996;2023-02-27T10:20:32;98357.88;;;2.16;50.98
72525;BME280;60547;48.502;8.996;2023-02-27T10:23:02;98364.13;;;2.13;51.93
72525;BME280;60547;48.502;8.996;2023-02-27T10:25:29;98369.53;;;2.09;50.27
72525;BME280;60547;48.502;8.996;2023-02-27T10:28:11;98360.94;;;2.11;50.29
72525;BME280;60547;48.502;8.996;2023-02-27T10:30:37;98366.06;;;2.12;49.35
72525;BME280;60547;48.502;8.996;2023-02-27T10:33:11;98370.53;;;2.80;50.09
72525;BME280;60547;48.502;8.996;2023-02-27T10:35:39;98371.56;;;2.12;49.25
72525;BME280;60547;48.502;8.996;2023-02-27T10:38:19;98374.50;;;2.26;49.32
72525;BME280;60547;48.502;8.996;2023-02-27T10:40:50;98373.50;;;2.12;50.27
72525;BME280;60547;48.502;8.996;2023-02-27T10:43:17;98376.63;;;2.37;49.48
72525;BME280;60547;48.502;8.996;2023-02-27T10:45:43;98375.72;;;2.85;49.25
72525;BME280;60547;48.502;8.996;2023-02-27T10:48:10;98390.94;;;2.79;47.92
72525;BME280;60547;48.502;8.996;2023-02-27T10:50:38;98381.03;;;2.71;48.00
72525;BME280;60547;48.502;8.996;2023-02-27T10:53:22;98386.75;;;2.89;48.77
72525;BME280;60547;48.502;8.996;2023-02-27T10:56:04;98382.59;;;2.72;47.60
72525;BME280;60547;48.502;8.996;2023-02-27T10:58:31;98372.28;;;3.29;46.26
72525;BME280;60547;48.502;8.996;2023-02-27T11:01:00;98363.69;;;3.75;45.79
72525;BME280;60547;48.502;8.996;2023-02-27T11:03:28;98366.53;;;3.41;46.37
72525;BME280;60547;48.502;8.996;2023-02-27T11:05:59;98377.78;;;3.66;44.90
72525;BME280;60547;48.502;8.996;2023-02-27T11:08:28;98380.63;;;3.03;46.00
72525;BME280;60547;48.502;8.996;2023-02-27T11:11:09;98377.00;;;2.95;44.97
72525;BME280;60547;48.502;8.996;2023-02-27T11:13:39;98383.44;;;3.43;42.77
72525;BME280;60547;48.502;8.996;2023-02-27T11:18:36;98360.75;;;3.53;42.56
72525;BME280;60547;48.502;8.996;2023-02-27T11:21:27;98371.09;;;3.67;42.98
72525;BME280;60547;48.502;8.996;2023-02-27T11:24:00;98378.41;;;3.93;42.25
72525;BME280;60547;48.502;8.996;2023-02-27T11:26:36;98376.13;;;4.02;42.13
72525;BME280;60547;48.502;8.996;2023-02-27T11:31:36;98372.13;;;3.96;41.96
72525;BME280;60547;48.502;8.996;2023-02-27T11:34:02;98361.38;;;4.32;42.34
72525;BME280;60547;48.502;8.996;2023-02-27T11:37:03;98358.00;;;4.01;42.98
72525;BME280;60547;48.502;8.996;2023-02-27T11:39:36;98369.72;;;3.10;43.78
72525;BME280;60547;48.502;8.996;2023-02-27T11:42:35;98363.78;;;2.74;44.61
72525;BME280;60547;48.502;8.996;2023-02-27T11:45:05;98360.13;;;3.71;43.92
72525;BME280;60547;48.502;8.996;2023-02-27T11:47:35;98377.28;;;2.86;43.54
72525;BME280;60547;48.502;8.996;2023-02-27T11:55:43;98363.38;;;3.06;44.44
72525;BME280;60547;48.502;8.996;2023-02-27T11:58:13;98366.22;;;3.50;43.61
72525;BME280;60547;48.502;8.996;2023-02-27T12:00:48;98366.34;;;3.64;43.61
72525;BME280;60547;48.502;8.996;2023-02-27T12:03:25;98371.97;;;4.26;42.73
72525;BME280;60547;48.502;8.996;2023-02-27T12:05:57;98355.66;;;4.00;41.94
72525;BME280;60547;48.502;8.996;2023-02-27T12:08:34;98358.72;;;3.91;42.33
72525;BME280;60547;48.502;8.996;2023-02-27T12:11:04;98362.84;;;3.27;44.32
72525;BME280;60547;48.502;8.996;2023-02-27T12:13:37;98367.56;;;2.92;45.29
72525;BME280;60547;48.502;8.996;2023-02-27T12:16:21;98355.84;;;2.66;45.74
72525;BME280;60547;48.502;8.996;2023-02-27T12:18:57;98371.00;;;2.56;46.82
72525;BME280;60547;48.502;8.996;2023-02-27T12:21:37;98365.69;;;2.70;46.16
72525;BME280;60547;48.502;8.996;2023-02-27T12:24:19;98357.88;;;2.72;46.17
72525;BME280;60547;48.502;8.996;2023-02-27T12:26:59;98366.59;;;2.48;46.28
72525;BME280;60547;48.502;8.996;2023-02-27T12:29:34;98362.63;;;2.45;45.98
72525;BME280;60547;48.502;8.996;2023-02-27T12:32:26;98360.72;;;2.23;44.66
72525;BME280;60547;48.502;8.996;2023-02-27T12:37:42;98359.81;;;2.42;46.41
72525;BME280;60547;48.502;8.996;2023-02-27T12:40:16;98353.78;;;2.59;46.85
72525;BME280;60547;48.502;8.996;2023-02-27T12:42:58;98352.44;;;2.46;46.68
72525;BME280;60547;48.502;8.996;2023-02-27T12:48:57;98350.31;;;2.36;45.84
72525;BME280;60547;48.502;8.996;2023-02-27T12:54:18;98367.91;;;2.31;46.11
72525;BME280;60547;48.502;8.996;2023-02-27T12:56:56;98357.72;;;2.32;46.08
72525;BME280;60547;48.502;8.996;2023-02-27T13:03:10;98345.69;;;2.40;46.88
72525;BME280;60547;48.502;8.996;2023-02-27T13:05:35;98353.66;;;2.22;46.96
72525;BME280;60547;48.502;8.996;2023-02-27T13:13:51;98357.09;;;2.42;47.96
72525;BME280;60547;48.502;8.996;2023-02-27T13:16:29;98357.94;;;2.19;48.01
72525;BME280;60547;48.502;8.996;2023-02-27T13:19:08;98357.34;;;2.07;47.64
72525;BME280;60547;48.502;8.996;2023-02-27T13:21:51;98363.91;;;1.99;46.99
72525;BME280;60547;48.502;8.996;2023-02-27T13:24:26;98358.78;;;1.97;47.60
72525;BME280;60547;48.502;8.996;2023-02-27T13:27:01;98356.44;;;1.99;47.71
72525;BME280;60547;48.502;8.996;2023-02-27T13:29:42;98344.53;;;2.14;48.32
72525;BME280;60547;48.502;8.996;2023-02-27T13:34:46;98343.78;;;2.44;49.53
72525;BME280;60547;48.502;8.996;2023-02-27T13:37:13;98353.06;;;2.36;47.51
72525;BME280;60547;48.502;8.996;2023-02-27T13:39:40;98350.53;;;2.50;46.99
72525;BME280;60547;48.502;8.996;2023-02-27T13:44:57;98354.75;;;2.44;49.18
72525;BME280;60547;48.502;8.996;2023-02-27T13:49:59;98349.22;;;2.40;49.11
72525;BME280;60547;48.502;8.996;2023-02-27T13:52:36;98342.84;;;2.33;48.10
72525;BME280;60547;48.502;8.996;2023-02-27T13:55:06;98340.09;;;2.06;48.48
72525;BME280;60547;48.502;8.996;2023-02-27T13:57:51;98340.94;;;2.10;48.09
72525;BME280;60547;48.502;8.996;2023-02-27T14:00:23;98341.09;;;1.94;47.99
72525;BME280;60547;48.502;8.996;2023-02-27T14:02:54;98344.31;;;2.00;47.69
72525;BME280;60547;48.502;8.996;2023-02-27T14:05:39;98351.75;;;2.00;47.44
72525;BME280;60547;48.502;8.996;2023-02-27T14:08:22;98358.34;;;2.21;47.21
72525;BME280;60547;48.502;8.996;2023-02-27T14:11:09;98347.47;;;2.29;47.14
72525;BME280;60547;48.502;8.996;2023-02-27T14:22:00;98347.69;;;2.43;47.55
72525;BME280;60547;48.502;8.996;2023-02-27T14:24:32;98351.03;;;2.59;47.95
72525;BME280;60547;48.502;8.996;2023-02-27T14:27:02;98346.75;;;2.32;47.51
72525;BME280;60547;48.502;8.996;2023-02-27T14:29:30;98354.41;;;2.19;47.97
72525;BME280;60547;48.502;8.996;2023-02-27T14:32:01;98344.78;;;2.06;48.75
72525;BME280;60547;48.502;8.996;2023-02-27T14:34:28;98349.53;;;2.09;48.94
72525;BME280;60547;48.502;8.996;2023-02-27T14:36:57;98345.09;;;2.01;50.00
72525;BME280;60547;48.502;8.996;2023-02-27T14:39:29;98350.13;;;2.21;49.62
72525;BME280;60547;48.502;8.996;2023-02-27T14:44:41;98342.63;;;1.92;48.89
72525;BME280;60547;48.502;8.996;2023-02-27T14:47:14;98357.19;;;1.96;50.41
72525;BME280;60547;48.502;8.996;2023-02-27T14:49:44;98356.56;;;2.06;49.63
72525;BME280;60547;48.502;8.996;2023-02-27T14:52:20;98352.91;;;1.99;50.15
72525;BME280;60547;48.502;8.996;2023-02-27T14:54:48;98365.09;;;2.01;49.99
72525;BME280;60547;48.502;8.996;2023-02-27T14:57:22;98356.44;;;1.99;50.41
72525;BME280;60547;48.502;8.996;2023-02-27T14:59:50;98367.38;;;1.96;49.58
72525;BME280;60547;48.502;8.996;2023-02-27T15:02:24;98372.91;;;1.99;49.48
72525;BME280;60547;48.502;8.996;2023-02-27T15:07:24;98372.00;;;1.91;50.32
72525;BME280;60547;48.502;8.996;2023-02-27T15:09:59;98385.25;;;1.86;49.59
72525;BME280;60547;48.502;8.996;2023-02-27T15:12:27;98377.88;;;1.90;50.89
72525;BME280;60547;48.502;8.996;2023-02-27T15:15:14;98377.03;;;1.86;49.48
72525;BME280;60547;48.502;8.996;2023-02-27T15:17:45;98367.31;;;1.92;49.44
72525;BME280;60547;48.502;8.996;2023-02-27T15:20:33;98384.47;;;1.85;49.18
72525;BME280;60547;48.502;8.996;2023-02-27T15:23:02;98373.06;;;1.60;50.59
72525;BME280;60547;48.502;8.996;2023-02-27T15:25:44;98386.53;;;1.69;50.80
72525;BME280;60547;48.502;8.996;2023-02-27T15:28:26;98378.97;;;1.63;50.69
72525;BME280;60547;48.502;8.996;2023-02-27T15:30:53;98384.75;;;1.57;50.46